Terminal Aerodrome Forecast
Issued by NWS

Home | Current Version | Previous Version | Text Only | Print | Product List | Glossary On
Versions: 1 2 3 4 5 6 7 8 9 10 11 12 13 14 15 16 17 18 19 20 21 22 23
819
FTUS43 KDVN 231249 AAB
TAFBRL
TAF AMD
KBRL 231249Z 2313/2412 21007KT P6SM BKN008
     FM231400 22008KT P6SM BKN015
     FM231600 24009KT P6SM SCT020 BKN035
     FM231800 29008KT P6SM VCSH SCT020 BKN035
     FM240000 32007KT P6SM BKN050
     FM240900 34006KT P6SM SCT008 BKN015=

USA.gov is the U.S. government's official web portal to all federal, state and local government web resources and services.